Time;durP1;ratioP1;P1;durP2;ratioP2;P2;SDS_P1;SDS_P2;PMS_P1;PMS_P2;Temp;Humidity;BMP_temperature;BMP_pressure;BME280_temperature;BME280_humidity;BME280_pressure;Samples;Min_cycle;Max_cycle;Signal;HPM_P1;HPM_P2
2023/06/17 00:00:25;;;;;;;19.75;13.43;;;15.30;99.90;;;;;;6149996;23;20481;-64
2023/06/17 00:02:50;;;;;;;19.90;14.48;;;15.30;99.90;;;;;;6148087;23;20048;-64
2023/06/17 00:05:16;;;;;;;17.63;14.60;;;15.30;99.90;;;;;;6150084;23;20060;-64
2023/06/17 00:07:44;;;;;;;26.90;16.08;;;15.30;99.90;;;;;;6150397;23;20429;-64
2023/06/17 00:10:10;;;;;;;22.95;14.93;;;15.40;99.90;;;;;;6150221;23;20076;-64
2023/06/17 00:12:36;;;;;;;28.52;16.20;;;15.40;99.90;;;;;;6150614;23;20009;-63
2023/06/17 00:15:04;;;;;;;26.05;17.00;;;15.40;99.90;;;;;;6150789;23;19997;-62
2023/06/17 00:17:32;;;;;;;25.25;18.83;;;15.40;99.90;;;;;;6150337;23;20029;-63
2023/06/17 00:20:00;;;;;;;24.02;18.33;;;15.40;99.90;;;;;;6150814;23;20010;-63
2023/06/17 00:22:29;;;;;;;27.45;17.38;;;15.30;99.90;;;;;;6150596;23;20006;-64
2023/06/17 00:24:56;;;;;;;33.67;18.35;;;15.30;99.90;;;;;;6149849;23;20017;-63
2023/06/17 00:27:22;;;;;;;27.70;18.27;;;15.30;99.90;;;;;;6150377;23;20010;-63
2023/06/17 00:29:47;;;;;;;30.52;19.30;;;15.30;99.90;;;;;;6150152;23;20005;-62
2023/06/17 00:32:13;;;;;;;33.35;18.73;;;15.20;99.90;;;;;;6149453;23;20017;-62
2023/06/17 00:34:39;;;;;;;31.33;19.42;;;15.20;99.90;;;;;;6150452;23;20011;-63
2023/06/17 00:37:04;;;;;;;26.95;18.70;;;15.20;99.90;;;;;;6152450;23;20029;-63
2023/06/17 00:39:30;;;;;;;29.23;20.45;;;15.20;99.90;;;;;;6152049;23;20005;-63
2023/06/17 00:41:57;;;;;;;28.40;18.52;;;15.30;99.90;;;;;;6152281;23;20032;-63
2023/06/17 00:44:23;;;;;;;29.35;18.88;;;15.30;99.90;;;;;;6151622;23;20016;-63
2023/06/17 00:46:52;;;;;;;28.25;19.35;;;15.30;99.90;;;;;;6148169;23;20006;-63
2023/06/17 00:49:19;;;;;;;25.13;18.00;;;15.30;99.90;;;;;;6151188;23;20386;-62
2023/06/17 00:51:45;;;;;;;32.50;21.05;;;15.30;99.90;;;;;;6151770;23;20350;-65
2023/06/17 00:54:12;;;;;;;28.80;18.90;;;15.30;99.90;;;;;;6151810;23;20012;-63
2023/06/17 00:56:40;;;;;;;26.48;19.30;;;15.30;99.90;;;;;;6152220;23;20619;-63
2023/06/17 00:59:07;;;;;;;31.75;19.48;;;15.30;99.90;;;;;;6149601;23;20397;-64
2023/06/17 01:01:35;;;;;;;28.25;19.15;;;15.30;99.90;;;;;;6148811;23;20059;-63
2023/06/17 01:04:02;;;;;;;30.38;21.50;;;15.40;99.90;;;;;;6148016;23;20444;-63
2023/06/17 01:06:50;;;;;;;30.70;21.23;;;15.40;99.90;;;;;;6150600;23;20009;-63
2023/06/17 01:09:23;;;;;;;33.55;21.02;;;15.40;99.90;;;;;;6150924;23;20033;-62
2023/06/17 01:11:53;;;;;;;31.33;19.98;;;15.30;99.90;;;;;;6151954;23;20009;-62
2023/06/17 01:14:20;;;;;;;33.15;21.92;;;15.30;99.90;;;;;;6151589;23;20006;-63
2023/06/17 01:16:50;;;;;;;34.83;23.27;;;15.30;99.90;;;;;;6151762;23;20007;-63
2023/06/17 01:19:20;;;;;;;32.08;22.30;;;15.30;99.90;;;;;;6152119;23;20069;-63
2023/06/17 01:21:53;;;;;;;37.45;23.45;;;15.30;99.90;;;;;;6151837;23;20001;-63
2023/06/17 01:24:27;;;;;;;37.35;22.98;;;15.40;99.90;;;;;;6151505;23;20002;-63
2023/06/17 01:26:57;;;;;;;36.17;23.23;;;15.30;99.90;;;;;;6151870;23;20077;-63
2023/06/17 01:29:23;;;;;;;33.72;22.75;;;15.40;99.90;;;;;;6152064;23;20001;-62
2023/06/17 01:32:01;;;;;;;30.75;20.50;;;15.40;99.90;;;;;;6150718;23;20018;-63
2023/06/17 01:34:40;;;;;;;38.85;24.40;;;15.40;99.90;;;;;;6151014;23;20060;-63
2023/06/17 01:37:10;;;;;;;30.67;23.48;;;15.40;99.90;;;;;;6151876;23;20006;-63
2023/06/17 01:39:37;;;;;;;33.17;22.13;;;15.40;99.90;;;;;;6149977;23;20013;-62
2023/06/17 01:42:09;;;;;;;36.17;23.70;;;15.40;99.90;;;;;;6151799;23;20014;-62
2023/06/17 01:44:36;;;;;;;30.58;21.52;;;15.40;99.90;;;;;;6151029;23;20001;-63
2023/06/17 01:47:03;;;;;;;27.75;21.15;;;15.40;99.90;;;;;;6151096;23;20462;-63
2023/06/17 01:49:29;;;;;;;41.65;23.88;;;15.40;99.90;;;;;;6149985;23;20002;-63
2023/06/17 01:51:54;;;;;;;35.47;21.52;;;15.40;99.90;;;;;;6150972;23;20326;-63
2023/06/17 01:54:20;;;;;;;34.28;22.85;;;15.40;99.90;;;;;;6151256;23;19997;-63
2023/06/17 01:56:46;;;;;;;30.15;21.38;;;15.50;99.90;;;;;;6151890;23;19997;-62
2023/06/17 01:59:12;;;;;;;30.38;19.30;;;15.40;99.90;;;;;;6151408;23;20516;-63
2023/06/17 02:01:37;;;;;;;26.27;18.95;;;15.40;99.90;;;;;;6150839;23;20096;-63
2023/06/17 02:04:03;;;;;;;27.98;19.27;;;15.40;99.90;;;;;;6148946;23;20002;-63
2023/06/17 02:06:28;;;;;;;31.40;20.75;;;15.50;99.90;;;;;;6151531;23;20002;-63
2023/06/17 02:08:55;;;;;;;27.73;19.33;;;15.40;99.90;;;;;;6151056;23;20009;-63
2023/06/17 02:11:21;;;;;;;28.10;20.00;;;15.40;99.90;;;;;;6151099;23;20381;-63
2023/06/17 02:13:47;;;;;;;30.35;20.60;;;15.40;99.90;;;;;;6149402;23;20005;-63
2023/06/17 02:16:12;;;;;;;24.90;18.23;;;15.40;99.90;;;;;;6151486;23;20008;-62
2023/06/17 02:18:39;;;;;;;27.75;20.45;;;15.40;99.90;;;;;;6151378;23;20016;-62
2023/06/17 02:21:05;;;;;;;27.35;17.75;;;15.40;99.90;;;;;;6149606;23;20532;-62
2023/06/17 02:23:30;;;;;;;29.00;19.27;;;15.40;99.90;;;;;;6150969;23;20170;-62
2023/06/17 02:25:57;;;;;;;27.85;18.58;;;15.40;99.90;;;;;;6150820;23;20421;-63
2023/06/17 02:28:22;;;;;;;21.67;17.63;;;15.40;99.90;;;;;;6151634;23;20029;-62
2023/06/17 02:30:48;;;;;;;24.35;18.70;;;15.40;99.90;;;;;;6149962;23;20451;-62
2023/06/17 02:33:17;;;;;;;25.38;17.20;;;15.40;99.90;;;;;;6149931;23;20005;-62
2023/06/17 02:35:44;;;;;;;19.73;17.40;;;15.30;99.90;;;;;;6150580;23;20008;-63
2023/06/17 02:38:10;;;;;;;28.58;19.77;;;15.40;99.90;;;;;;6151014;23;20073;-63
2023/06/17 02:40:36;;;;;;;24.85;18.90;;;15.40;99.90;;;;;;6150622;23;20434;-63
2023/06/17 02:43:01;;;;;;;26.65;18.58;;;15.40;99.90;;;;;;6151129;23;20012;-63
2023/06/17 02:45:27;;;;;;;28.10;20.52;;;15.40;99.90;;;;;;6150835;23;20449;-62
2023/06/17 02:47:52;;;;;;;27.15;19.73;;;15.40;99.90;;;;;;6150706;23;20386;-62
2023/06/17 02:50:23;;;;;;;25.70;18.60;;;15.40;99.90;;;;;;6151385;23;20009;-63
2023/06/17 02:52:55;;;;;;;28.55;18.77;;;15.40;99.90;;;;;;6149159;23;20064;-62
2023/06/17 02:55:25;;;;;;;23.20;17.35;;;15.40;99.90;;;;;;6149069;23;20009;-62
2023/06/17 02:57:51;;;;;;;22.90;17.17;;;15.40;99.90;;;;;;6150373;23;20001;-62
2023/06/17 03:00:17;;;;;;;23.30;16.98;;;15.40;99.90;;;;;;6150375;23;20009;-62
2023/06/17 03:02:42;;;;;;;20.42;16.50;;;15.40;99.90;;;;;;6150228;23;20350;-62
2023/06/17 03:05:08;;;;;;;21.75;16.00;;;15.40;99.90;;;;;;6149363;23;20069;-63
2023/06/17 03:07:35;;;;;;;20.80;14.95;;;15.40;99.90;;;;;;6150133;23;20005;-63
2023/06/17 03:10:02;;;;;;;21.02;16.70;;;15.30;99.90;;;;;;6149520;23;20072;-63
2023/06/17 03:12:28;;;;;;;23.08;16.45;;;15.40;99.90;;;;;;6149816;23;20310;-63
2023/06/17 03:14:53;;;;;;;26.85;18.58;;;15.30;99.90;;;;;;6149116;23;20050;-62
2023/06/17 03:17:19;;;;;;;22.65;17.00;;;15.40;99.90;;;;;;6149792;23;20577;-62
2023/06/17 03:19:46;;;;;;;24.85;17.70;;;15.40;99.90;;;;;;6148898;23;20012;-62
2023/06/17 03:22:11;;;;;;;25.33;18.10;;;15.40;99.90;;;;;;6149530;23;20005;-62
2023/06/17 03:24:37;;;;;;;24.20;19.55;;;15.40;99.90;;;;;;6149219;23;20084;-62
2023/06/17 03:27:02;;;;;;;25.38;17.63;;;15.40;99.90;;;;;;6149579;23;20076;-63
2023/06/17 03:29:29;;;;;;;22.85;17.42;;;15.40;99.90;;;;;;6149423;23;20073;-63
2023/06/17 03:31:56;;;;;;;25.63;18.08;;;15.40;99.90;;;;;;6146750;23;20025;-61
2023/06/17 03:34:22;;;;;;;22.88;18.40;;;15.40;99.90;;;;;;6149253;23;20002;-63
2023/06/17 03:36:49;;;;;;;22.13;17.15;;;15.40;99.90;;;;;;6149223;23;20509;-62
2023/06/17 03:39:15;;;;;;;27.65;17.48;;;15.40;99.90;;;;;;6149613;23;20029;-63
2023/06/17 03:41:40;;;;;;;24.70;17.95;;;15.50;99.90;;;;;;6149269;23;20009;-63
2023/06/17 03:44:06;;;;;;;22.05;17.05;;;15.50;99.90;;;;;;6148751;23;20001;-63
2023/06/17 03:46:32;;;;;;;22.00;16.85;;;15.50;99.90;;;;;;6149432;23;20017;-62
2023/06/17 03:48:57;;;;;;;24.77;17.60;;;15.50;99.90;;;;;;6147005;23;20013;-62
2023/06/17 03:51:23;;;;;;;24.60;17.45;;;15.50;99.90;;;;;;6149119;23;19998;-63
2023/06/17 03:53:48;;;;;;;24.80;17.23;;;15.50;99.90;;;;;;6149078;23;20002;-63
2023/06/17 03:56:14;;;;;;;25.67;18.25;;;15.50;99.90;;;;;;6149254;23;20001;-63
2023/06/17 03:58:40;;;;;;;22.75;18.17;;;15.50;99.90;;;;;;6149221;23;20001;-62
2023/06/17 04:01:12;;;;;;;27.45;19.40;;;15.50;99.90;;;;;;6148567;23;20534;-63
2023/06/17 04:03:38;;;;;;;29.63;20.25;;;15.50;99.90;;;;;;6149012;23;20086;-63
2023/06/17 04:06:04;;;;;;;26.92;19.83;;;15.40;99.90;;;;;;6149793;23;20485;-62
2023/06/17 04:08:32;;;;;;;28.20;19.23;;;15.50;99.90;;;;;;6147389;23;20461;-61
2023/06/17 04:10:59;;;;;;;29.67;19.15;;;15.50;99.90;;;;;;6149384;23;20001;-61
2023/06/17 04:13:25;;;;;;;25.60;18.25;;;15.50;99.90;;;;;;6148683;23;20034;-62
2023/06/17 04:15:51;;;;;;;24.50;18.55;;;15.60;99.90;;;;;;6149066;23;20017;-62
2023/06/17 04:18:16;;;;;;;25.25;18.17;;;15.50;99.90;;;;;;6149369;23;20013;-63
2023/06/17 04:20:42;;;;;;;26.63;18.77;;;15.50;99.90;;;;;;6149068;23;20005;-63
2023/06/17 04:23:07;;;;;;;30.08;20.05;;;15.50;99.90;;;;;;6149190;23;20060;-62
2023/06/17 04:25:36;;;;;;;25.63;20.05;;;15.50;99.90;;;;;;6147208;23;20009;-62
2023/06/17 04:28:06;;;;;;;23.42;18.38;;;15.50;99.90;;;;;;6146889;23;20009;-63
2023/06/17 04:30:33;;;;;;;30.30;20.27;;;15.50;99.90;;;;;;6146867;23;20009;-62
2023/06/17 04:33:00;;;;;;;24.92;20.35;;;15.50;99.90;;;;;;6147393;23;20021;-63
2023/06/17 04:35:29;;;;;;;30.73;21.55;;;15.50;99.90;;;;;;6146093;23;20009;-63
2023/06/17 04:37:55;;;;;;;29.92;19.63;;;15.50;99.90;;;;;;6149472;23;20089;-62
2023/06/17 04:40:22;;;;;;;26.83;18.48;;;15.60;99.90;;;;;;6149319;23;20452;-62
2023/06/17 04:42:48;;;;;;;25.45;20.38;;;15.60;99.90;;;;;;6148695;23;20048;-63
2023/06/17 04:45:15;;;;;;;27.70;20.73;;;15.60;99.90;;;;;;6148591;23;20005;-63
2023/06/17 04:47:41;;;;;;;24.52;18.55;;;15.50;99.90;;;;;;6149126;23;20009;-62
2023/06/17 04:50:06;;;;;;;28.30;21.40;;;15.50;99.90;;;;;;6148784;23;20056;-62
2023/06/17 04:52:32;;;;;;;26.65;21.45;;;15.60;99.90;;;;;;6148943;23;20064;-62
2023/06/17 04:54:58;;;;;;;26.58;21.58;;;15.60;99.90;;;;;;6148539;23;20064;-62
2023/06/17 04:57:24;;;;;;;31.13;22.58;;;15.60;99.90;;;;;;6148670;23;20485;-62
2023/06/17 04:59:50;;;;;;;26.90;21.75;;;15.60;99.90;;;;;;6149017;23;20001;-63
2023/06/17 05:02:15;;;;;;;30.67;21.67;;;15.50;99.90;;;;;;6148679;23;20358;-62
2023/06/17 05:04:41;;;;;;;26.25;20.73;;;15.60;99.90;;;;;;6148152;23;20010;-62
2023/06/17 05:07:07;;;;;;;35.53;23.35;;;15.60;99.90;;;;;;6148436;23;20016;-63
2023/06/17 05:09:32;;;;;;;30.88;23.75;;;15.60;99.90;;;;;;6149065;23;20036;-62
2023/06/17 05:11:58;;;;;;;31.30;22.55;;;15.50;99.90;;;;;;6149103;23;20002;-62
2023/06/17 05:14:24;;;;;;;32.88;23.00;;;15.50;99.90;;;;;;6148781;23;20017;-62
2023/06/17 05:16:49;;;;;;;27.15;22.13;;;15.60;99.90;;;;;;6148834;23;19998;-63
2023/06/17 05:19:15;;;;;;;31.15;22.67;;;15.60;99.90;;;;;;6148711;23;20002;-61
2023/06/17 05:21:41;;;;;;;31.00;23.58;;;15.70;99.90;;;;;;6149341;23;20001;-63
2023/06/17 05:24:07;;;;;;;27.58;22.33;;;15.80;99.90;;;;;;6150263;23;20001;-62
2023/06/17 05:26:33;;;;;;;27.27;22.23;;;15.80;99.90;;;;;;6148889;23;20028;-62
2023/06/17 05:28:58;;;;;;;32.35;22.27;;;15.80;99.90;;;;;;6150288;23;20005;-62
2023/06/17 05:31:24;;;;;;;29.35;21.65;;;15.80;99.90;;;;;;6147875;23;20089;-63
2023/06/17 05:33:49;;;;;;;27.58;21.98;;;15.80;99.90;;;;;;6150301;23;20469;-60
2023/06/17 05:36:15;;;;;;;28.55;20.80;;;15.90;99.90;;;;;;6150435;23;20419;-63
2023/06/17 05:38:40;;;;;;;32.50;22.50;;;15.90;99.90;;;;;;6150273;23;20133;-63
2023/06/17 05:41:06;;;;;;;28.75;21.77;;;16.00;99.90;;;;;;6150314;23;20002;-62
2023/06/17 05:43:31;;;;;;;28.55;22.80;;;16.00;99.90;;;;;;6148625;23;20006;-62
2023/06/17 05:45:57;;;;;;;33.13;23.83;;;16.10;99.90;;;;;;6150552;23;20012;-63
2023/06/17 05:48:23;;;;;;;31.65;24.23;;;16.10;99.90;;;;;;6148584;23;20581;-63
2023/06/17 05:50:48;;;;;;;36.58;23.70;;;16.10;99.90;;;;;;6150412;23;20283;-62
2023/06/17 05:53:15;;;;;;;32.63;25.20;;;16.10;99.90;;;;;;6148944;23;20012;-63
2023/06/17 05:55:40;;;;;;;31.90;23.88;;;16.10;99.90;;;;;;6150058;23;20031;-62
2023/06/17 05:58:06;;;;;;;32.92;25.02;;;16.20;99.90;;;;;;6149808;23;20066;-62
2023/06/17 06:00:31;;;;;;;34.42;24.70;;;16.10;99.90;;;;;;6149857;23;20010;-63
2023/06/17 06:02:57;;;;;;;38.60;23.27;;;16.10;99.90;;;;;;6149349;23;20006;-63
2023/06/17 06:05:22;;;;;;;32.83;25.33;;;16.10;99.90;;;;;;6150107;23;20012;-63
2023/06/17 06:07:48;;;;;;;30.48;22.52;;;16.10;99.90;;;;;;6150218;23;20005;-62
2023/06/17 06:10:15;;;;;;;37.10;27.00;;;16.10;99.90;;;;;;6150525;23;20006;-62
2023/06/17 06:12:40;;;;;;;35.03;25.83;;;16.20;99.90;;;;;;6150437;23;20013;-62
2023/06/17 06:15:07;;;;;;;35.85;27.50;;;16.30;99.90;;;;;;6150163;23;20025;-62
2023/06/17 06:17:33;;;;;;;33.58;25.25;;;16.40;99.90;;;;;;6150184;23;20056;-62
2023/06/17 06:19:58;;;;;;;37.92;27.30;;;16.40;99.90;;;;;;6150684;23;20029;-62
2023/06/17 06:22:24;;;;;;;40.08;26.73;;;16.40;99.90;;;;;;6150410;23;20029;-62
2023/06/17 06:24:49;;;;;;;41.00;26.83;;;16.40;99.90;;;;;;6150180;23;20401;-62
2023/06/17 06:27:15;;;;;;;37.63;28.35;;;16.50;99.90;;;;;;6150031;23;20009;-63
2023/06/17 06:29:41;;;;;;;35.38;24.73;;;16.50;99.90;;;;;;6149941;23;20056;-62
2023/06/17 06:32:07;;;;;;;32.08;23.98;;;16.50;99.90;;;;;;6148808;23;20017;-62
2023/06/17 06:34:33;;;;;;;32.78;25.25;;;16.60;99.90;;;;;;6149765;23;20009;-62
2023/06/17 06:36:58;;;;;;;37.05;28.52;;;16.60;99.90;;;;;;6150026;23;20046;-62
2023/06/17 06:39:25;;;;;;;43.00;29.70;;;16.60;99.90;;;;;;6150262;23;20008;-62
2023/06/17 06:41:51;;;;;;;31.60;24.88;;;16.50;99.90;;;;;;6149978;23;20032;-62
2023/06/17 06:44:17;;;;;;;37.13;28.25;;;16.50;99.90;;;;;;6150295;23;20449;-62
2023/06/17 06:46:42;;;;;;;35.60;25.55;;;16.60;99.90;;;;;;6149509;23;20001;-63
2023/06/17 06:49:08;;;;;;;38.25;27.08;;;16.60;99.90;;;;;;6150236;23;20006;-62
2023/06/17 06:51:34;;;;;;;34.00;25.80;;;16.70;99.90;;;;;;6150095;23;20005;-62
2023/06/17 06:54:00;;;;;;;38.30;28.48;;;16.80;99.90;;;;;;6149821;23;20036;-62
2023/06/17 06:56:26;;;;;;;39.13;29.08;;;16.90;99.90;;;;;;6150030;23;19997;-62
2023/06/17 06:58:52;;;;;;;43.70;29.65;;;16.90;99.90;;;;;;6148062;23;20088;-66
2023/06/17 07:01:17;;;;;;;35.15;24.95;;;16.80;99.90;;;;;;6149163;23;20041;-63
2023/06/17 07:03:43;;;;;;;41.53;27.70;;;16.80;99.90;;;;;;6149623;23;20006;-62
2023/06/17 07:06:09;;;;;;;33.33;25.52;;;16.90;99.90;;;;;;6148350;23;20055;-62
2023/06/17 07:08:34;;;;;;;33.35;25.05;;;17.00;99.90;;;;;;6149919;23;20097;-62
2023/06/17 07:11:00;;;;;;;31.60;23.90;;;17.10;99.90;;;;;;6147701;23;20001;-62
2023/06/17 07:13:26;;;;;;;35.00;24.27;;;17.10;99.90;;;;;;6149453;23;20639;-62
2023/06/17 07:15:52;;;;;;;39.45;27.40;;;17.10;99.90;;;;;;6149313;23;20426;-63
2023/06/17 07:18:17;;;;;;;38.42;27.75;;;17.20;99.90;;;;;;6149733;23;20008;-63
2023/06/17 07:20:43;;;;;;;37.33;26.02;;;17.20;99.90;;;;;;6149730;23;20010;-65
2023/06/17 07:23:08;;;;;;;34.53;24.67;;;17.20;99.90;;;;;;6149500;23;20129;-63
2023/06/17 07:25:34;;;;;;;30.15;23.42;;;17.30;99.90;;;;;;6149627;23;20353;-64
2023/06/17 07:27:59;;;;;;;34.83;23.98;;;17.30;99.90;;;;;;6149252;23;20033;-63
2023/06/17 07:30:27;;;;;;;37.03;23.52;;;17.20;99.90;;;;;;6147915;23;20113;-62
2023/06/17 07:32:53;;;;;;;33.85;24.75;;;17.30;99.90;;;;;;6148986;23;20276;-62
2023/06/17 07:35:19;;;;;;;33.47;24.77;;;17.30;99.90;;;;;;6149250;23;20060;-62
2023/06/17 07:37:45;;;;;;;32.08;23.25;;;17.40;99.90;;;;;;6149378;23;20121;-63
2023/06/17 07:40:11;;;;;;;31.08;22.95;;;17.30;99.90;;;;;;6149406;23;20380;-63
2023/06/17 07:42:37;;;;;;;32.25;23.88;;;17.40;99.90;;;;;;6147213;23;20005;-63
2023/06/17 07:45:04;;;;;;;33.08;23.30;;;17.50;99.90;;;;;;6146835;23;20061;-64
2023/06/17 07:47:30;;;;;;;32.17;24.85;;;17.60;99.90;;;;;;6148762;23;20001;-62
2023/06/17 07:49:56;;;;;;;28.27;23.10;;;17.60;99.90;;;;;;6148995;23;20057;-63
2023/06/17 07:52:21;;;;;;;33.10;23.10;;;17.60;99.90;;;;;;6147413;23;20491;-62
2023/06/17 07:54:47;;;;;;;30.85;21.67;;;17.70;99.90;;;;;;6148662;23;20052;-63
2023/06/17 07:57:13;;;;;;;28.65;21.38;;;17.80;99.90;;;;;;6149504;23;20036;-62
2023/06/17 07:59:41;;;;;;;25.42;20.15;;;17.90;99.90;;;;;;6149357;23;20002;-63
2023/06/17 08:02:06;;;;;;;28.92;21.20;;;18.00;99.90;;;;;;6146530;23;20018;-62
2023/06/17 08:04:32;;;;;;;29.85;21.27;;;18.10;99.90;;;;;;6149039;23;20006;-63
2023/06/17 08:06:58;;;;;;;26.73;19.90;;;18.10;99.90;;;;;;6148443;23;20437;-61
2023/06/17 08:09:23;;;;;;;24.08;19.02;;;18.10;99.90;;;;;;6148788;23;20005;-63
2023/06/17 08:11:49;;;;;;;34.00;21.38;;;18.10;99.90;;;;;;6149338;23;20088;-62
2023/06/17 08:14:15;;;;;;;27.42;20.60;;;18.20;99.90;;;;;;6149146;23;20005;-63
2023/06/17 08:16:42;;;;;;;28.27;20.90;;;18.30;99.90;;;;;;6148610;23;20020;-64
2023/06/17 08:19:08;;;;;;;22.67;18.52;;;18.50;99.90;;;;;;6148577;23;20030;-62
2023/06/17 08:21:34;;;;;;;25.65;19.98;;;18.60;99.90;;;;;;6149326;23;20005;-62
2023/06/17 08:24:16;;;;;;;23.23;18.05;;;18.70;99.90;;;;;;6148858;23;20136;-63
2023/06/17 08:26:43;;;;;;;21.95;16.25;;;18.90;99.90;;;;;;6149215;23;20087;-62
2023/06/17 08:29:15;;;;;;;21.42;16.13;;;19.00;99.90;;;;;;6149398;23;20029;-63
2023/06/17 08:31:42;;;;;;;23.73;17.80;;;19.20;99.90;;;;;;6148259;23;20507;-63
2023/06/17 08:34:08;;;;;;;23.30;17.10;;;19.40;99.90;;;;;;6147006;23;20100;-63
2023/06/17 08:36:34;;;;;;;22.55;17.08;;;19.60;99.90;;;;;;6148326;23;20032;-63
2023/06/17 08:39:00;;;;;;;21.10;17.73;;;19.80;99.90;;;;;;6149102;23;20154;-63
2023/06/17 08:41:28;;;;;;;18.63;15.02;;;19.80;99.90;;;;;;6149289;23;20045;-63
2023/06/17 08:44:00;;;;;;;19.38;15.52;;;20.10;99.90;;;;;;6147818;23;20005;-63
2023/06/17 08:46:26;;;;;;;21.15;15.13;;;20.40;99.90;;;;;;6149225;23;20452;-63
2023/06/17 08:48:53;;;;;;;19.13;14.30;;;20.80;99.90;;;;;;6148687;23;20024;-63
2023/06/17 08:51:19;;;;;;;20.33;15.85;;;21.00;99.90;;;;;;6149259;23;20383;-64
2023/06/17 08:53:46;;;;;;;21.20;15.43;;;21.20;99.90;;;;;;6146788;23;20005;-64
2023/06/17 08:56:12;;;;;;;18.98;15.95;;;21.10;99.90;;;;;;6149507;23;20002;-64
2023/06/17 08:58:38;;;;;;;25.15;16.02;;;20.90;99.90;;;;;;6151025;23;20013;-63
2023/06/17 09:01:07;;;;;;;18.08;14.80;;;20.80;99.90;;;;;;6150344;23;20354;-63
2023/06/17 09:03:37;;;;;;;17.73;14.38;;;20.80;99.90;;;;;;6151407;23;20525;-63
2023/06/17 09:06:23;;;;;;;18.58;14.75;;;20.90;99.90;;;;;;6150404;23;20049;-64
2023/06/17 09:08:50;;;;;;;18.58;14.52;;;21.20;99.90;;;;;;6150336;23;20006;-62
2023/06/17 09:11:17;;;;;;;19.42;12.95;;;21.30;99.90;;;;;;6150987;23;20005;-63
2023/06/17 09:13:50;;;;;;;19.27;13.75;;;21.50;99.90;;;;;;6148666;23;20006;-64
2023/06/17 09:16:29;;;;;;;19.60;13.60;;;21.40;99.90;;;;;;6151135;23;20072;-64
2023/06/17 09:18:59;;;;;;;14.73;11.25;;;21.30;99.90;;;;;;6147080;23;20005;-64
2023/06/17 09:21:26;;;;;;;14.02;11.38;;;21.20;99.90;;;;;;6151276;23;20110;-63
2023/06/17 09:23:57;;;;;;;15.95;11.93;;;21.30;99.90;;;;;;6150391;23;20005;-64
2023/06/17 09:26:25;;;;;;;16.42;11.20;;;21.60;99.90;;;;;;6150978;23;20009;-66
2023/06/17 09:28:51;;;;;;;12.45;11.00;;;21.90;99.90;;;;;;6148707;23;20016;-63
2023/06/17 09:31:18;;;;;;;17.83;13.02;;;22.20;99.90;;;;;;6149635;23;20018;-64
2023/06/17 09:33:44;;;;;;;16.33;12.27;;;22.00;99.90;;;;;;6149329;23;20505;-65
2023/06/17 09:36:11;;;;;;;16.73;11.02;;;22.20;99.90;;;;;;6150558;23;20012;-65
2023/06/17 09:38:37;;;;;;;14.25;12.38;;;22.40;99.90;;;;;;6150602;23;20349;-66
2023/06/17 09:41:04;;;;;;;13.52;11.63;;;22.60;99.90;;;;;;6148851;23;20014;-64
2023/06/17 09:43:30;;;;;;;15.55;12.02;;;22.50;99.90;;;;;;6150728;23;20012;-64
2023/06/17 09:45:59;;;;;;;16.80;11.23;;;22.40;99.90;;;;;;6148774;23;20080;-64
2023/06/17 09:48:30;;;;;;;11.65;10.35;;;22.30;99.90;;;;;;6150217;23;20013;-65
2023/06/17 09:50:56;;;;;;;13.50;10.20;;;22.50;99.90;;;;;;6150471;23;19998;-65
2023/06/17 09:53:27;;;;;;;9.82;8.85;;;22.50;99.90;;;;;;6149985;23;20389;-64
2023/06/17 09:55:56;;;;;;;9.68;7.95;;;22.60;99.90;;;;;;6148758;23;20006;-64
2023/06/17 09:58:26;;;;;;;9.30;8.43;;;22.60;99.90;;;;;;6150583;23;20064;-65
2023/06/17 10:00:52;;;;;;;12.07;9.45;;;22.50;99.90;;;;;;6147929;23;20022;-65
2023/06/17 10:03:18;;;;;;;12.68;10.55;;;22.50;99.90;;;;;;6148771;23;20473;-65
2023/06/17 10:05:52;;;;;;;14.45;10.20;;;22.70;99.90;;;;;;6149817;23;20002;-67
2023/06/17 10:08:18;;;;;;;10.82;8.75;;;22.80;99.90;;;;;;6150469;23;20474;-65
2023/06/17 10:10:44;;;;;;;10.05;9.05;;;22.80;99.90;;;;;;6150682;23;20081;-64
2023/06/17 10:13:10;;;;;;;11.02;8.27;;;23.00;99.90;;;;;;6150593;23;20040;-65
2023/06/17 10:15:37;;;;;;;12.50;9.23;;;23.20;99.90;;;;;;6149602;23;20457;-64
2023/06/17 10:18:04;;;;;;;12.60;9.80;;;23.20;99.90;;;;;;6150370;23;20009;-64
2023/06/17 10:20:32;;;;;;;10.70;8.27;;;23.10;99.90;;;;;;6150512;23;20014;-67
2023/06/17 10:23:00;;;;;;;10.70;8.30;;;23.10;99.90;;;;;;6150370;23;20001;-65
2023/06/17 10:25:27;;;;;;;11.15;8.20;;;23.20;99.90;;;;;;6150117;23;20009;-66
2023/06/17 10:27:52;;;;;;;8.32;7.55;;;23.40;99.90;;;;;;6148045;23;20417;-65
2023/06/17 10:30:28;;;;;;;8.60;7.70;;;23.40;99.90;;;;;;6148834;23;19997;-64
2023/06/17 10:32:57;;;;;;;;;;;23.40;99.90;;;;;;6148484;23;20010;-65
2023/06/17 10:35:23;;;;;;;8.65;6.95;;;23.30;99.90;;;;;;6149784;23;19901;-69
2023/06/17 10:37:50;;;;;;;8.20;6.47;;;23.30;99.90;;;;;;6146817;23;20009;-67
2023/06/17 10:40:19;;;;;;;10.38;7.38;;;23.30;99.90;;;;;;6147695;23;20013;-66
2023/06/17 10:43:01;;;;;;;7.18;6.47;;;23.30;99.90;;;;;;6150415;23;20009;-64
2023/06/17 10:45:51;;;;;;;9.32;6.93;;;23.20;99.40;;;;;;6147404;23;20048;-65
2023/06/17 10:48:36;;;;;;;8.85;6.20;;;23.30;99.90;;;;;;6150063;23;20570;-66
2023/06/17 10:51:03;;;;;;;6.47;5.88;;;23.40;97.70;;;;;;6149554;23;20001;-67
2023/06/17 10:53:31;;;;;;;6.60;5.85;;;23.50;95.70;;;;;;6149182;23;20009;-65
2023/06/17 10:55:58;;;;;;;6.50;5.88;;;23.50;97.70;;;;;;6149619;23;20005;-65
2023/06/17 10:58:37;;;;;;;8.68;5.80;;;23.70;99.00;;;;;;6149920;23;20083;-64
2023/06/17 11:01:08;;;;;;;6.82;5.65;;;23.90;96.00;;;;;;6149562;23;20017;-67
2023/06/17 11:03:34;;;;;;;6.82;5.65;;;23.90;96.20;;;;;;6147469;23;20474;-65
2023/06/17 11:06:04;;;;;;;10.20;7.00;;;23.90;96.40;;;;;;6149881;23;20072;-65
2023/06/17 11:08:31;;;;;;;10.10;7.47;;;23.70;96.40;;;;;;6147402;23;20049;-63
2023/06/17 11:11:14;;;;;;;8.95;8.05;;;23.50;97.00;;;;;;6149858;23;20036;-65
2023/06/17 11:13:42;;;;;;;8.57;6.93;;;23.30;97.00;;;;;;6147647;23;19998;-65
2023/06/17 11:16:08;;;;;;;9.93;7.95;;;23.10;97.90;;;;;;6149200;23;20025;-65
2023/06/17 11:18:38;;;;;;;8.55;7.10;;;23.00;97.20;;;;;;6148294;23;20021;-64
2023/06/17 11:21:05;;;;;;;8.55;6.95;;;23.00;98.60;;;;;;6148747;23;20001;-65
2023/06/17 11:23:31;;;;;;;6.75;6.10;;;23.00;99.00;;;;;;6149042;23;20091;-64
2023/06/17 11:25:57;;;;;;;13.82;6.97;;;23.10;98.30;;;;;;6149283;23;20012;-65
2023/06/17 11:28:22;;;;;;;7.28;6.45;;;23.40;98.30;;;;;;6147764;23;20414;-67
2023/06/17 11:30:49;;;;;;;8.23;6.30;;;23.70;97.60;;;;;;6147996;23;20116;-66
2023/06/17 11:33:18;;;;;;;8.95;6.38;;;24.00;98.40;;;;;;6149822;23;20036;-65
2023/06/17 11:35:44;;;;;;;7.80;7.07;;;24.20;96.80;;;;;;6147802;23;20327;-65
2023/06/17 11:38:11;;;;;;;7.20;5.90;;;24.50;98.70;;;;;;6149659;23;20082;-66
2023/06/17 11:40:40;;;;;;;6.90;5.72;;;24.70;95.00;;;;;;6140015;23;20422;-54
2023/06/17 11:43:06;;;;;;;5.90;5.30;;;24.70;94.00;;;;;;6147663;23;20005;-57
2023/06/17 11:45:33;;;;;;;6.03;5.18;;;24.60;93.30;;;;;;6148353;23;20002;-55
2023/06/17 11:47:58;;;;;;;7.75;5.88;;;24.60;93.20;;;;;;6149324;23;20009;-58
2023/06/17 11:50:29;;;;;;;5.97;5.38;;;24.50;93.00;;;;;;6149622;23;20069;-55
2023/06/17 11:52:56;;;;;;;5.80;5.30;;;24.50;91.70;;;;;;6148801;23;20005;-52
2023/06/17 11:55:35;;;;;;;5.35;4.72;;;24.60;93.50;;;;;;6149279;23;20102;-55
2023/06/17 11:58:02;;;;;;;6.45;5.78;;;24.80;93.50;;;;;;6149767;23;20005;-54
2023/06/17 12:00:29;;;;;;;5.70;5.20;;;24.90;92.10;;;;;;6148258;23;20385;-54
2023/06/17 12:02:57;;;;;;;5.72;5.00;;;25.10;92.90;;;;;;6149117;23;20279;-56
2023/06/17 12:05:27;;;;;;;8.35;5.45;;;25.30;90.90;;;;;;6149109;23;20028;-56
2023/06/17 12:07:52;;;;;;;6.15;5.22;;;25.10;90.10;;;;;;6148889;23;20005;-54
2023/06/17 12:10:18;;;;;;;5.38;4.63;;;25.20;91.20;;;;;;6149581;23;20421;-54
2023/06/17 12:12:45;;;;;;;4.97;4.47;;;25.30;90.30;;;;;;6122677;23;20008;-58
2023/06/17 12:15:12;;;;;;;5.35;4.10;;;25.20;89.20;;;;;;6148942;23;20521;-55
2023/06/17 12:17:47;;;;;;;5.30;4.80;;;25.10;87.70;;;;;;6148485;23;20005;-54
2023/06/17 12:20:17;;;;;;;5.55;5.03;;;25.00;90.20;;;;;;6149563;23;20005;-55
2023/06/17 12:22:44;;;;;;;5.47;4.90;;;24.90;90.70;;;;;;6149482;23;20097;-52
2023/06/17 12:25:11;;;;;;;7.15;5.45;;;24.70;90.30;;;;;;6149398;23;20523;-53
2023/06/17 12:27:37;;;;;;;5.47;4.97;;;24.60;90.40;;;;;;6149142;23;20323;-54
2023/06/17 12:30:04;;;;;;;6.22;5.32;;;24.80;90.10;;;;;;6148449;23;20002;-53